createdAt,value
2023-05-23T00:01:15.034Z,8.43
2023-05-23T00:03:49.587Z,8.33
2023-05-23T00:06:38.803Z,8.10
2023-05-23T00:09:26.710Z,8.05
2023-05-23T00:12:00.120Z,8.25
2023-05-23T00:14:35.770Z,8.35
2023-05-23T00:17:25.070Z,8.23
2023-05-23T00:19:58.491Z,7.85
2023-05-23T00:22:47.472Z,7.22
2023-05-23T00:25:22.186Z,7.90
2023-05-23T00:28:09.858Z,8.88
2023-05-23T00:30:57.515Z,9.43
2023-05-23T00:33:46.980Z,8.58
2023-05-23T00:39:13.480Z,8.28
2023-05-23T00:42:02.088Z,8.63
2023-05-23T00:44:35.663Z,8.38
2023-05-23T00:47:23.744Z,8.38
2023-05-23T00:49:57.574Z,9.30
2023-05-23T00:52:46.665Z,8.53
2023-05-23T00:55:35.058Z,8.98
2023-05-23T00:58:09.069Z,9.10
2023-05-23T01:00:56.525Z,8.83
2023-05-23T01:03:30.438Z,9.38
2023-05-23T01:06:04.111Z,9.18
2023-05-23T01:08:37.413Z,9.28
2023-05-23T01:11:30.709Z,9.88
2023-05-23T01:14:21.504Z,9.90
2023-05-23T01:17:13.145Z,9.83
2023-05-23T01:20:08.829Z,8.90
2023-05-23T01:22:56.677Z,9.08
2023-05-23T01:25:53.910Z,9.93
2023-05-23T01:28:29.769Z,9.10
2023-05-23T01:31:19.492Z,9.35
2023-05-23T01:33:55.081Z,9.00
2023-05-23T01:36:45.381Z,9.83
2023-05-23T01:41:53.513Z,8.70
2023-05-23T01:44:42.712Z,9.45
2023-05-23T01:47:17.359Z,8.70
2023-05-23T01:50:06.659Z,8.78
2023-05-23T01:53:01.106Z,8.35
2023-05-23T01:55:50.535Z,8.93
2023-05-23T01:58:24.163Z,9.35
2023-05-23T02:01:11.896Z,8.28
2023-05-23T02:03:45.716Z,7.83
2023-05-23T02:06:33.289Z,9.03
2023-05-23T02:09:06.850Z,9.00
2023-05-23T02:11:54.672Z,9.43
2023-05-23T02:14:42.572Z,8.70
2023-05-23T02:17:17.178Z,8.15
2023-05-23T02:20:06.607Z,8.38
2023-05-23T02:22:40.349Z,8.10
2023-05-23T02:25:15.899Z,8.73
2023-05-23T02:28:03.600Z,7.85
2023-05-23T02:30:36.993Z,8.53
2023-05-23T02:33:24.537Z,7.75
2023-05-23T02:35:58.570Z,9.50
2023-05-23T02:38:46.578Z,8.20
2023-05-23T02:41:20.074Z,8.08
2023-05-23T02:44:07.818Z,8.55
2023-05-23T02:46:41.379Z,7.55
2023-05-23T02:49:17.802Z,8.70
2023-05-23T02:51:51.552Z,8.43
2023-05-23T02:54:39.249Z,8.10
2023-05-23T02:57:12.981Z,8.13
2023-05-23T02:59:47.109Z,8.05
2023-05-23T03:02:21.638Z,7.85
2023-05-23T03:05:10.812Z,7.45
2023-05-23T03:07:44.427Z,7.72
2023-05-23T03:10:31.851Z,7.95
2023-05-23T03:13:05.538Z,7.92
2023-05-23T03:15:53.114Z,7.67
2023-05-23T03:18:26.391Z,7.83
2023-05-23T03:21:00.235Z,7.10
2023-05-23T03:23:48.045Z,7.50
2023-05-23T03:26:22.319Z,8.08
2023-05-23T03:29:11.109Z,8.33
2023-05-23T03:31:44.565Z,5.72
2023-05-23T03:34:34.022Z,6.97
2023-05-23T03:37:07.636Z,7.30
2023-05-23T03:39:55.554Z,6.58
2023-05-23T03:42:43.478Z,7.17
2023-05-23T03:45:18.364Z,6.58
2023-05-23T03:48:06.432Z,6.40
2023-05-23T03:50:40.053Z,7.42
2023-05-23T03:53:13.719Z,6.17
2023-05-23T03:56:01.709Z,7.12
2023-05-23T03:58:35.639Z,7.53
2023-05-23T04:01:25.083Z,8.00
2023-05-23T04:04:00.533Z,7.62
2023-05-23T04:06:50.085Z,7.75
2023-05-23T04:09:23.786Z,8.13
2023-05-23T04:12:12.588Z,7.35
2023-05-23T04:14:47.730Z,8.10
2023-05-23T04:17:37.946Z,7.00
2023-05-23T04:20:13.461Z,8.05
2023-05-23T04:23:01.198Z,7.03
2023-05-23T04:25:51.519Z,7.87
2023-05-23T04:28:46.292Z,7.62
2023-05-23T04:31:20.477Z,8.10
2023-05-23T04:33:54.372Z,8.18
2023-05-23T04:36:44.909Z,7.78
2023-05-23T04:39:33.190Z,5.83
2023-05-23T04:42:37.792Z,7.83
2023-05-23T04:45:32.051Z,7.97
2023-05-23T04:48:08.328Z,8.05
2023-05-23T04:50:59.857Z,8.58
2023-05-23T04:53:33.399Z,8.60
2023-05-23T04:56:22.143Z,9.10
2023-05-23T04:58:56.175Z,8.65
